sensor_id;sensor_type;location;lat;lon;timestamp;pressure;altitude;pressure_sealevel;temperature
7389;BMP180;3735;50.136;11.062;2023-03-14T00:00:14;96209.00;;;9.70
7389;BMP180;3735;50.136;11.062;2023-03-14T00:02:40;96212.00;;;9.80
7389;BMP180;3735;50.136;11.062;2023-03-14T00:05:08;96228.00;;;9.80
7389;BMP180;3735;50.136;11.062;2023-03-14T00:07:38;96237.00;;;9.70
7389;BMP180;3735;50.136;11.062;2023-03-14T00:10:10;96229.00;;;9.70
7389;BMP180;3735;50.136;11.062;2023-03-14T00:12:36;96229.00;;;9.60
7389;BMP180;3735;50.136;11.062;2023-03-14T00:15:02;96237.00;;;9.70
7389;BMP180;3735;50.136;11.062;2023-03-14T00:17:30;96248.00;;;9.70
7389;BMP180;3735;50.136;11.062;2023-03-14T00:19:56;96277.00;;;9.70
7389;BMP180;3735;50.136;11.062;2023-03-14T00:22:22;96302.00;;;9.80
7389;BMP180;3735;50.136;11.062;2023-03-14T00:24:48;96312.00;;;9.80
7389;BMP180;3735;50.136;11.062;2023-03-14T00:27:14;96315.00;;;9.90
7389;BMP180;3735;50.136;11.062;2023-03-14T00:29:40;96317.00;;;9.80
7389;BMP180;3735;50.136;11.062;2023-03-14T00:32:07;96306.00;;;9.70
7389;BMP180;3735;50.136;11.062;2023-03-14T00:34:33;96305.00;;;9.80
7389;BMP180;3735;50.136;11.062;2023-03-14T00:36:59;96309.00;;;9.80
7389;BMP180;3735;50.136;11.062;2023-03-14T00:39:25;96315.00;;;9.70
7389;BMP180;3735;50.136;11.062;2023-03-14T00:41:50;96307.00;;;9.80
7389;BMP180;3735;50.136;11.062;2023-03-14T00:44:16;96316.00;;;9.80
7389;BMP180;3735;50.136;11.062;2023-03-14T00:46:42;96308.00;;;9.80
7389;BMP180;3735;50.136;11.062;2023-03-14T00:49:07;96327.00;;;9.80
7389;BMP180;3735;50.136;11.062;2023-03-14T00:51:33;96297.00;;;9.80
7389;BMP180;3735;50.136;11.062;2023-03-14T00:54:00;96323.00;;;9.80
7389;BMP180;3735;50.136;11.062;2023-03-14T00:56:26;96319.00;;;9.80
7389;BMP180;3735;50.136;11.062;2023-03-14T00:58:55;96312.00;;;9.80
7389;BMP180;3735;50.136;11.062;2023-03-14T01:01:22;96311.00;;;9.80
7389;BMP180;3735;50.136;11.062;2023-03-14T01:03:52;96303.00;;;9.80
7389;BMP180;3735;50.136;11.062;2023-03-14T01:06:22;96315.00;;;9.80
7389;BMP180;3735;50.136;11.062;2023-03-14T01:08:49;96311.00;;;9.80
7389;BMP180;3735;50.136;11.062;2023-03-14T01:11:23;96296.00;;;9.70
7389;BMP180;3735;50.136;11.062;2023-03-14T01:13:50;96303.00;;;9.80
7389;BMP180;3735;50.136;11.062;2023-03-14T01:16:16;96302.00;;;9.80
7389;BMP180;3735;50.136;11.062;2023-03-14T01:18:44;96292.00;;;9.80
7389;BMP180;3735;50.136;11.062;2023-03-14T01:23:47;96290.00;;;9.80
7389;BMP180;3735;50.136;11.062;2023-03-14T01:26:16;96277.00;;;9.90
7389;BMP180;3735;50.136;11.062;2023-03-14T01:28:45;96298.00;;;9.90
7389;BMP180;3735;50.136;11.062;2023-03-14T01:31:12;96288.00;;;9.90
7389;BMP180;3735;50.136;11.062;2023-03-14T01:33:39;96282.00;;;10.00
7389;BMP180;3735;50.136;11.062;2023-03-14T01:36:06;96269.00;;;9.90
7389;BMP180;3735;50.136;11.062;2023-03-14T01:38:34;96271.00;;;10.00
7389;BMP180;3735;50.136;11.062;2023-03-14T01:41:01;96275.00;;;10.10
7389;BMP180;3735;50.136;11.062;2023-03-14T01:43:29;96263.00;;;10.10
7389;BMP180;3735;50.136;11.062;2023-03-14T01:48:40;96240.00;;;10.10
7389;BMP180;3735;50.136;11.062;2023-03-14T01:51:16;96244.00;;;10.10
7389;BMP180;3735;50.136;11.062;2023-03-14T01:53:43;96234.00;;;10.10
7389;BMP180;3735;50.136;11.062;2023-03-14T01:56:13;96223.00;;;10.20
7389;BMP180;3735;50.136;11.062;2023-03-14T01:58:45;96231.00;;;10.10
7389;BMP180;3735;50.136;11.062;2023-03-14T02:01:18;96231.00;;;10.00
7389;BMP180;3735;50.136;11.062;2023-03-14T02:03:54;96213.00;;;10.10
7389;BMP180;3735;50.136;11.062;2023-03-14T02:06:27;96215.00;;;10.00
7389;BMP180;3735;50.136;11.062;2023-03-14T02:08:55;96217.00;;;10.10
7389;BMP180;3735;50.136;11.062;2023-03-14T02:11:21;96228.00;;;10.20
7389;BMP180;3735;50.136;11.062;2023-03-14T02:13:50;96214.00;;;10.20
7389;BMP180;3735;50.136;11.062;2023-03-14T02:16:16;96219.00;;;10.20
7389;BMP180;3735;50.136;11.062;2023-03-14T02:18:42;96211.00;;;10.20
7389;BMP180;3735;50.136;11.062;2023-03-14T02:29:25;96205.00;;;10.30
7389;BMP180;3735;50.136;11.062;2023-03-14T02:31:51;96218.00;;;10.20
7389;BMP180;3735;50.136;11.062;2023-03-14T02:34:17;96219.00;;;10.30
7389;BMP180;3735;50.136;11.062;2023-03-14T02:36:43;96216.00;;;10.30
7389;BMP180;3735;50.136;11.062;2023-03-14T02:39:24;96211.00;;;10.30
7389;BMP180;3735;50.136;11.062;2023-03-14T02:41:51;96179.00;;;10.30
7389;BMP180;3735;50.136;11.062;2023-03-14T02:44:17;96188.00;;;10.30
7389;BMP180;3735;50.136;11.062;2023-03-14T02:46:43;96170.00;;;10.30
7389;BMP180;3735;50.136;11.062;2023-03-14T02:49:12;96170.00;;;10.30
7389;BMP180;3735;50.136;11.062;2023-03-14T02:51:41;96174.00;;;10.30
7389;BMP180;3735;50.136;11.062;2023-03-14T02:54:08;96174.00;;;10.20
7389;BMP180;3735;50.136;11.062;2023-03-14T02:56:34;96170.00;;;10.10
7389;BMP180;3735;50.136;11.062;2023-03-14T02:59:04;96167.00;;;10.10
7389;BMP180;3735;50.136;11.062;2023-03-14T03:01:30;96166.00;;;10.00
7389;BMP180;3735;50.136;11.062;2023-03-14T03:03:55;96164.00;;;10.00
7389;BMP180;3735;50.136;11.062;2023-03-14T03:06:21;96162.00;;;9.90
7389;BMP180;3735;50.136;11.062;2023-03-14T03:08:47;96158.00;;;10.00
7389;BMP180;3735;50.136;11.062;2023-03-14T03:11:13;96169.00;;;9.90
7389;BMP180;3735;50.136;11.062;2023-03-14T03:13:38;96179.00;;;9.90
7389;BMP180;3735;50.136;11.062;2023-03-14T03:16:05;96189.00;;;9.90
7389;BMP180;3735;50.136;11.062;2023-03-14T03:18:31;96173.00;;;9.90
7389;BMP180;3735;50.136;11.062;2023-03-14T03:21:01;96201.00;;;9.90
7389;BMP180;3735;50.136;11.062;2023-03-14T03:23:27;96184.00;;;9.90
7389;BMP180;3735;50.136;11.062;2023-03-14T03:25:52;96181.00;;;9.80
7389;BMP180;3735;50.136;11.062;2023-03-14T03:28:19;96187.00;;;9.80
7389;BMP180;3735;50.136;11.062;2023-03-14T03:30:45;96176.00;;;9.80
7389;BMP180;3735;50.136;11.062;2023-03-14T03:33:13;96154.00;;;9.80
7389;BMP180;3735;50.136;11.062;2023-03-14T03:35:48;96171.00;;;9.80
7389;BMP180;3735;50.136;11.062;2023-03-14T03:38:14;96141.00;;;9.80
7389;BMP180;3735;50.136;11.062;2023-03-14T03:40:40;96151.00;;;9.80
7389;BMP180;3735;50.136;11.062;2023-03-14T03:43:06;96153.00;;;9.90
7389;BMP180;3735;50.136;11.062;2023-03-14T03:45:32;96138.00;;;9.80
7389;BMP180;3735;50.136;11.062;2023-03-14T03:47:58;96143.00;;;9.80
7389;BMP180;3735;50.136;11.062;2023-03-14T03:50:23;96153.00;;;9.80
7389;BMP180;3735;50.136;11.062;2023-03-14T03:52:49;96147.00;;;9.90
7389;BMP180;3735;50.136;11.062;2023-03-14T03:55:15;96139.00;;;9.80
7389;BMP180;3735;50.136;11.062;2023-03-14T03:57:41;96136.00;;;9.80
7389;BMP180;3735;50.136;11.062;2023-03-14T04:00:07;96149.00;;;9.80
7389;BMP180;3735;50.136;11.062;2023-03-14T04:02:36;96151.00;;;9.80
7389;BMP180;3735;50.136;11.062;2023-03-14T04:05:02;96144.00;;;9.90
7389;BMP180;3735;50.136;11.062;2023-03-14T04:07:28;96140.00;;;9.90
7389;BMP180;3735;50.136;11.062;2023-03-14T04:09:53;96139.00;;;9.90
7389;BMP180;3735;50.136;11.062;2023-03-14T04:12:19;96130.00;;;9.90
7389;BMP180;3735;50.136;11.062;2023-03-14T04:14:45;96132.00;;;10.10
7389;BMP180;3735;50.136;11.062;2023-03-14T04:17:11;96121.00;;;10.00
7389;BMP180;3735;50.136;11.062;2023-03-14T04:19:37;96117.00;;;10.00
7389;BMP180;3735;50.136;11.062;2023-03-14T04:22:03;96130.00;;;9.90
7389;BMP180;3735;50.136;11.062;2023-03-14T04:24:29;96133.00;;;9.80
7389;BMP180;3735;50.136;11.062;2023-03-14T04:26:54;96127.00;;;9.80
7389;BMP180;3735;50.136;11.062;2023-03-14T04:29:20;96126.00;;;9.70
7389;BMP180;3735;50.136;11.062;2023-03-14T04:31:46;96130.00;;;9.80
7389;BMP180;3735;50.136;11.062;2023-03-14T04:34:12;96116.00;;;9.80
7389;BMP180;3735;50.136;11.062;2023-03-14T04:36:37;96118.00;;;9.70
7389;BMP180;3735;50.136;11.062;2023-03-14T04:39:03;96105.00;;;9.70
7389;BMP180;3735;50.136;11.062;2023-03-14T04:41:29;96092.00;;;9.80
7389;BMP180;3735;50.136;11.062;2023-03-14T04:43:56;96100.00;;;9.80
7389;BMP180;3735;50.136;11.062;2023-03-14T04:46:22;96102.00;;;9.90
7389;BMP180;3735;50.136;11.062;2023-03-14T04:48:47;96088.00;;;10.00
7389;BMP180;3735;50.136;11.062;2023-03-14T04:51:13;96090.00;;;9.90
7389;BMP180;3735;50.136;11.062;2023-03-14T04:53:39;96091.00;;;9.90
7389;BMP180;3735;50.136;11.062;2023-03-14T04:56:06;96092.00;;;9.90
7389;BMP180;3735;50.136;11.062;2023-03-14T04:58:31;96082.00;;;9.80
7389;BMP180;3735;50.136;11.062;2023-03-14T05:01:03;96078.00;;;9.80
7389;BMP180;3735;50.136;11.062;2023-03-14T05:03:29;96095.00;;;9.80
7389;BMP180;3735;50.136;11.062;2023-03-14T05:05:55;96094.00;;;9.90
7389;BMP180;3735;50.136;11.062;2023-03-14T05:08:22;96088.00;;;9.90
7389;BMP180;3735;50.136;11.062;2023-03-14T05:10:57;96094.00;;;9.80
7389;BMP180;3735;50.136;11.062;2023-03-14T05:13:23;96082.00;;;9.80
7389;BMP180;3735;50.136;11.062;2023-03-14T05:15:49;96099.00;;;9.80
7389;BMP180;3735;50.136;11.062;2023-03-14T05:18:16;96095.00;;;9.80
7389;BMP180;3735;50.136;11.062;2023-03-14T05:20:42;96076.00;;;9.80
7389;BMP180;3735;50.136;11.062;2023-03-14T05:23:11;96075.00;;;9.90
7389;BMP180;3735;50.136;11.062;2023-03-14T05:25:37;96090.00;;;9.80
7389;BMP180;3735;50.136;11.062;2023-03-14T05:28:02;96079.00;;;9.80
7389;BMP180;3735;50.136;11.062;2023-03-14T05:30:29;96074.00;;;9.90
7389;BMP180;3735;50.136;11.062;2023-03-14T05:32:56;96076.00;;;9.90
7389;BMP180;3735;50.136;11.062;2023-03-14T05:35:22;96088.00;;;9.80
7389;BMP180;3735;50.136;11.062;2023-03-14T05:37:48;96093.00;;;9.80
7389;BMP180;3735;50.136;11.062;2023-03-14T05:40:14;96079.00;;;9.70
7389;BMP180;3735;50.136;11.062;2023-03-14T05:42:39;96084.00;;;9.70
7389;BMP180;3735;50.136;11.062;2023-03-14T05:45:06;96082.00;;;9.70
7389;BMP180;3735;50.136;11.062;2023-03-14T05:47:32;96072.00;;;9.70
7389;BMP180;3735;50.136;11.062;2023-03-14T05:49:57;96080.00;;;9.60
7389;BMP180;3735;50.136;11.062;2023-03-14T05:52:23;96074.00;;;9.60
7389;BMP180;3735;50.136;11.062;2023-03-14T05:54:49;96068.00;;;9.60
7389;BMP180;3735;50.136;11.062;2023-03-14T05:57:15;96065.00;;;9.60
7389;BMP180;3735;50.136;11.062;2023-03-14T05:59:40;96063.00;;;9.60
7389;BMP180;3735;50.136;11.062;2023-03-14T06:02:06;96067.00;;;9.60
7389;BMP180;3735;50.136;11.062;2023-03-14T06:04:32;96064.00;;;9.70
7389;BMP180;3735;50.136;11.062;2023-03-14T06:06:57;96067.00;;;9.70
7389;BMP180;3735;50.136;11.062;2023-03-14T06:09:23;96060.00;;;9.70
7389;BMP180;3735;50.136;11.062;2023-03-14T06:11:49;96053.00;;;9.70
7389;BMP180;3735;50.136;11.062;2023-03-14T06:14:16;96048.00;;;9.70
7389;BMP180;3735;50.136;11.062;2023-03-14T06:16:42;96034.00;;;9.70
7389;BMP180;3735;50.136;11.062;2023-03-14T06:19:07;96036.00;;;9.70
7389;BMP180;3735;50.136;11.062;2023-03-14T06:21:33;96039.00;;;9.70
7389;BMP180;3735;50.136;11.062;2023-03-14T06:23:59;96044.00;;;9.70
7389;BMP180;3735;50.136;11.062;2023-03-14T06:26:25;96037.00;;;9.70
7389;BMP180;3735;50.136;11.062;2023-03-14T06:28:50;96041.00;;;9.70
7389;BMP180;3735;50.136;11.062;2023-03-14T06:31:17;96032.00;;;9.70
7389;BMP180;3735;50.136;11.062;2023-03-14T06:33:43;96052.00;;;9.70
7389;BMP180;3735;50.136;11.062;2023-03-14T06:36:09;96046.00;;;9.70
7389;BMP180;3735;50.136;11.062;2023-03-14T06:38:34;96048.00;;;9.80
7389;BMP180;3735;50.136;11.062;2023-03-14T06:41:07;96049.00;;;9.90
7389;BMP180;3735;50.136;11.062;2023-03-14T06:43:34;96049.00;;;9.90
7389;BMP180;3735;50.136;11.062;2023-03-14T06:45:59;96043.00;;;10.00
7389;BMP180;3735;50.136;11.062;2023-03-14T06:48:25;96040.00;;;10.00
7389;BMP180;3735;50.136;11.062;2023-03-14T06:50:51;96037.00;;;9.90
7389;BMP180;3735;50.136;11.062;2023-03-14T06:53:16;96040.00;;;10.10
7389;BMP180;3735;50.136;11.062;2023-03-14T06:55:42;96040.00;;;10.00
7389;BMP180;3735;50.136;11.062;2023-03-14T06:58:08;96056.00;;;10.20
7389;BMP180;3735;50.136;11.062;2023-03-14T07:00:35;96035.00;;;10.20
7389;BMP180;3735;50.136;11.062;2023-03-14T07:03:01;96031.00;;;10.20
7389;BMP180;3735;50.136;11.062;2023-03-14T07:05:27;96042.00;;;10.30
7389;BMP180;3735;50.136;11.062;2023-03-14T07:07:53;96035.00;;;10.30
7389;BMP180;3735;50.136;11.062;2023-03-14T07:10:19;96034.00;;;10.30
7389;BMP180;3735;50.136;11.062;2023-03-14T07:12:45;96034.00;;;10.30
7389;BMP180;3735;50.136;11.062;2023-03-14T07:15:11;96040.00;;;10.50
7389;BMP180;3735;50.136;11.062;2023-03-14T07:17:37;96036.00;;;10.60
7389;BMP180;3735;50.136;11.062;2023-03-14T07:20:04;96040.00;;;10.60
7389;BMP180;3735;50.136;11.062;2023-03-14T07:22:30;96052.00;;;10.70
7389;BMP180;3735;50.136;11.062;2023-03-14T07:24:56;96013.00;;;10.40
7389;BMP180;3735;50.136;11.062;2023-03-14T07:27:22;96040.00;;;10.40
7389;BMP180;3735;50.136;11.062;2023-03-14T07:29:47;96038.00;;;10.40
7389;BMP180;3735;50.136;11.062;2023-03-14T07:32:13;96044.00;;;10.50
7389;BMP180;3735;50.136;11.062;2023-03-14T07:34:41;96030.00;;;10.30
7389;BMP180;3735;50.136;11.062;2023-03-14T07:37:08;96039.00;;;10.30
7389;BMP180;3735;50.136;11.062;2023-03-14T07:39:34;96043.00;;;10.40
7389;BMP180;3735;50.136;11.062;2023-03-14T07:42:00;96041.00;;;10.50
7389;BMP180;3735;50.136;11.062;2023-03-14T07:44:26;96034.00;;;10.50
7389;BMP180;3735;50.136;11.062;2023-03-14T07:46:52;96041.00;;;10.40
7389;BMP180;3735;50.136;11.062;2023-03-14T07:49:18;96041.00;;;10.30
7389;BMP180;3735;50.136;11.062;2023-03-14T07:51:48;96028.00;;;10.40
7389;BMP180;3735;50.136;11.062;2023-03-14T07:54:14;96044.00;;;10.60
7389;BMP180;3735;50.136;11.062;2023-03-14T07:56:40;96024.00;;;10.50
7389;BMP180;3735;50.136;11.062;2023-03-14T07:59:06;96036.00;;;10.60
7389;BMP180;3735;50.136;11.062;2023-03-14T08:01:32;96037.00;;;10.80
7389;BMP180;3735;50.136;11.062;2023-03-14T08:03:58;96038.00;;;11.40
7389;BMP180;3735;50.136;11.062;2023-03-14T08:06:24;96021.00;;;11.40
7389;BMP180;3735;50.136;11.062;2023-03-14T08:08:50;96033.00;;;11.30
7389;BMP180;3735;50.136;11.062;2023-03-14T08:11:16;96033.00;;;11.40
7389;BMP180;3735;50.136;11.062;2023-03-14T08:13:42;96024.00;;;11.20
7389;BMP180;3735;50.136;11.062;2023-03-14T08:16:08;96022.00;;;11.30
7389;BMP180;3735;50.136;11.062;2023-03-14T08:18:34;96021.00;;;11.30
7389;BMP180;3735;50.136;11.062;2023-03-14T08:20:59;96024.00;;;11.30
7389;BMP180;3735;50.136;11.062;2023-03-14T08:23:25;96029.00;;;11.30
7389;BMP180;3735;50.136;11.062;2023-03-14T08:25:52;96016.00;;;11.60
7389;BMP180;3735;50.136;11.062;2023-03-14T08:28:18;96012.00;;;11.70
7389;BMP180;3735;50.136;11.062;2023-03-14T08:30:44;96028.00;;;11.80
7389;BMP180;3735;50.136;11.062;2023-03-14T08:33:10;96007.00;;;11.80
7389;BMP180;3735;50.136;11.062;2023-03-14T08:35:38;96028.00;;;11.70
7389;BMP180;3735;50.136;11.062;2023-03-14T08:38:03;96044.00;;;11.80
7389;BMP180;3735;50.136;11.062;2023-03-14T08:40:29;96023.00;;;11.40
7389;BMP180;3735;50.136;11.062;2023-03-14T08:42:55;96040.00;;;11.30
7389;BMP180;3735;50.136;11.062;2023-03-14T08:45:20;96024.00;;;11.20
7389;BMP180;3735;50.136;11.062;2023-03-14T08:47:47;96041.00;;;11.20
7389;BMP180;3735;50.136;11.062;2023-03-14T08:50:13;96033.00;;;11.30
7389;BMP180;3735;50.136;11.062;2023-03-14T08:52:39;96026.00;;;11.30
7389;BMP180;3735;50.136;11.062;2023-03-14T08:55:09;96015.00;;;11.30
7389;BMP180;3735;50.136;11.062;2023-03-14T08:57:36;96041.00;;;11.00
7389;BMP180;3735;50.136;11.062;2023-03-14T09:00:04;96043.00;;;11.20
7389;BMP180;3735;50.136;11.062;2023-03-14T09:02:38;96040.00;;;11.10
7389;BMP180;3735;50.136;11.062;2023-03-14T09:05:05;96041.00;;;11.00
7389;BMP180;3735;50.136;11.062;2023-03-14T09:07:30;96046.00;;;10.80
7389;BMP180;3735;50.136;11.062;2023-03-14T09:09:56;96051.00;;;10.70
7389;BMP180;3735;50.136;11.062;2023-03-14T09:12:22;96048.00;;;10.70
7389;BMP180;3735;50.136;11.062;2023-03-14T09:14:48;96044.00;;;10.90
7389;BMP180;3735;50.136;11.062;2023-03-14T09:17:13;96061.00;;;10.90
7389;BMP180;3735;50.136;11.062;2023-03-14T09:19:39;96061.00;;;11.00
7389;BMP180;3735;50.136;11.062;2023-03-14T09:22:05;96066.00;;;10.80
7389;BMP180;3735;50.136;11.062;2023-03-14T09:24:31;96060.00;;;11.00
7389;BMP180;3735;50.136;11.062;2023-03-14T09:26:57;96075.00;;;10.80
7389;BMP180;3735;50.136;11.062;2023-03-14T09:29:22;96079.00;;;10.80
7389;BMP180;3735;50.136;11.062;2023-03-14T09:31:48;96075.00;;;10.50
7389;BMP180;3735;50.136;11.062;2023-03-14T09:34:14;96087.00;;;10.40
7389;BMP180;3735;50.136;11.062;2023-03-14T09:36:40;96078.00;;;10.50
7389;BMP180;3735;50.136;11.062;2023-03-14T09:39:06;96096.00;;;10.30
7389;BMP180;3735;50.136;11.062;2023-03-14T09:41:40;96090.00;;;10.30
7389;BMP180;3735;50.136;11.062;2023-03-14T09:44:26;96093.00;;;10.20
7389;BMP180;3735;50.136;11.062;2023-03-14T09:46:57;96094.00;;;10.20
7389;BMP180;3735;50.136;11.062;2023-03-14T09:49:36;96104.00;;;10.10
7389;BMP180;3735;50.136;11.062;2023-03-14T09:52:17;96096.00;;;10.10
7389;BMP180;3735;50.136;11.062;2023-03-14T09:54:52;96084.00;;;10.10
7389;BMP180;3735;50.136;11.062;2023-03-14T09:57:23;96092.00;;;10.00
7389;BMP180;3735;50.136;11.062;2023-03-14T09:59:52;96090.00;;;10.00
7389;BMP180;3735;50.136;11.062;2023-03-14T10:02:34;96082.00;;;10.00
7389;BMP180;3735;50.136;11.062;2023-03-14T10:05:00;96090.00;;;10.10
7389;BMP180;3735;50.136;11.062;2023-03-14T10:07:32;96097.00;;;10.10
7389;BMP180;3735;50.136;11.062;2023-03-14T10:09:59;96078.00;;;10.20
7389;BMP180;3735;50.136;11.062;2023-03-14T10:12:36;96083.00;;;10.20
7389;BMP180;3735;50.136;11.062;2023-03-14T10:15:13;96092.00;;;10.20
7389;BMP180;3735;50.136;11.062;2023-03-14T10:17:47;96082.00;;;10.20
7389;BMP180;3735;50.136;11.062;2023-03-14T10:20:28;96094.00;;;10.30
7389;BMP180;3735;50.136;11.062;2023-03-14T10:23:00;96091.00;;;10.30
7389;BMP180;3735;50.136;11.062;2023-03-14T10:25:35;96074.00;;;10.30
7389;BMP180;3735;50.136;11.062;2023-03-14T10:28:04;96089.00;;;10.40
7389;BMP180;3735;50.136;11.062;2023-03-14T10:30:37;96091.00;;;10.40
7389;BMP180;3735;50.136;11.062;2023-03-14T10:36:23;96082.00;;;10.60
7389;BMP180;3735;50.136;11.062;2023-03-14T10:41:50;96073.00;;;10.90
7389;BMP180;3735;50.136;11.062;2023-03-14T10:44:23;96081.00;;;11.10
7389;BMP180;3735;50.136;11.062;2023-03-14T10:47:02;96070.00;;;11.20
7389;BMP180;3735;50.136;11.062;2023-03-14T10:49:33;96069.00;;;11.40
7389;BMP180;3735;50.136;11.062;2023-03-14T10:52:25;96072.00;;;11.60
7389;BMP180;3735;50.136;11.062;2023-03-14T10:54:59;96069.00;;;11.80
7389;BMP180;3735;50.136;11.062;2023-03-14T10:57:26;96071.00;;;11.70
7389;BMP180;3735;50.136;11.062;2023-03-14T10:59:53;96063.00;;;12.00
7389;BMP180;3735;50.136;11.062;2023-03-14T11:08:26;96075.00;;;12.10
7389;BMP180;3735;50.136;11.062;2023-03-14T11:11:25;96057.00;;;12.20
7389;BMP180;3735;50.136;11.062;2023-03-14T11:14:12;96067.00;;;12.50
7389;BMP180;3735;50.136;11.062;2023-03-14T11:20:09;96044.00;;;12.70
7389;BMP180;3735;50.136;11.062;2023-03-14T11:23:02;96063.00;;;12.70
7389;BMP180;3735;50.136;11.062;2023-03-14T11:25:37;96043.00;;;12.80
7389;BMP180;3735;50.136;11.062;2023-03-14T11:28:22;96044.00;;;12.70
7389;BMP180;3735;50.136;11.062;2023-03-14T11:31:00;96047.00;;;12.80
7389;BMP180;3735;50.136;11.062;2023-03-14T11:33:46;96030.00;;;12.70
7389;BMP180;3735;50.136;11.062;2023-03-14T11:36:46;96023.00;;;12.50
7389;BMP180;3735;50.136;11.062;2023-03-14T11:39:18;96024.00;;;12.30
7389;BMP180;3735;50.136;11.062;2023-03-14T11:41:53;96030.00;;;12.40
7389;BMP180;3735;50.136;11.062;2023-03-14T11:44:26;96020.00;;;12.80
7389;BMP180;3735;50.136;11.062;2023-03-14T11:47:14;96006.00;;;13.10
7389;BMP180;3735;50.136;11.062;2023-03-14T11:49:58;96005.00;;;13.20
7389;BMP180;3735;50.136;11.062;2023-03-14T11:52:46;95987.00;;;14.50
7389;BMP180;3735;50.136;11.062;2023-03-14T11:55:30;95998.00;;;14.90
7389;BMP180;3735;50.136;11.062;2023-03-14T11:58:05;95991.00;;;14.40
7389;BMP180;3735;50.136;11.062;2023-03-14T12:00:38;95986.00;;;14.60
7389;BMP180;3735;50.136;11.062;2023-03-14T12:03:32;95973.00;;;15.10
7389;BMP180;3735;50.136;11.062;2023-03-14T12:06:36;95986.00;;;14.50
7389;BMP180;3735;50.136;11.062;2023-03-14T12:09:07;95983.00;;;14.80
7389;BMP180;3735;50.136;11.062;2023-03-14T12:11:59;95989.00;;;14.30
7389;BMP180;3735;50.136;11.062;2023-03-14T12:20:17;95973.00;;;13.70
7389;BMP180;3735;50.136;11.062;2023-03-14T12:22:54;95989.00;;;14.00
7389;BMP180;3735;50.136;11.062;2023-03-14T12:25:25;95989.00;;;13.90
7389;BMP180;3735;50.136;11.062;2023-03-14T12:30:38;95991.00;;;13.60
7389;BMP180;3735;50.136;11.062;2023-03-14T12:35:51;95977.00;;;13.80
7389;BMP180;3735;50.136;11.062;2023-03-14T12:38:51;95985.00;;;13.90
7389;BMP180;3735;50.136;11.062;2023-03-14T12:49:53;96011.00;;;12.20
7389;BMP180;3735;50.136;11.062;2023-03-14T12:55:14;96012.00;;;11.90
7389;BMP180;3735;50.136;11.062;2023-03-14T13:00:39;96003.00;;;11.60
7389;BMP180;3735;50.136;11.062;2023-03-14T13:06:02;96004.00;;;11.60
7389;BMP180;3735;50.136;11.062;2023-03-14T13:08:44;96010.00;;;11.30
7389;BMP180;3735;50.136;11.062;2023-03-14T13:11:19;96020.00;;;11.10
7389;BMP180;3735;50.136;11.062;2023-03-14T13:13:52;96011.00;;;10.80
7389;BMP180;3735;50.136;11.062;2023-03-14T13:16:20;96035.00;;;10.50
7389;BMP180;3735;50.136;11.062;2023-03-14T13:18:50;96034.00;;;10.30
7389;BMP180;3735;50.136;11.062;2023-03-14T13:21:28;96033.00;;;10.20
7389;BMP180;3735;50.136;11.062;2023-03-14T13:24:20;96034.00;;;10.10
7389;BMP180;3735;50.136;11.062;2023-03-14T13:26:46;96034.00;;;10.20
7389;BMP180;3735;50.136;11.062;2023-03-14T13:29:31;96037.00;;;10.20
7389;BMP180;3735;50.136;11.062;2023-03-14T13:32:01;96039.00;;;10.20
7389;BMP180;3735;50.136;11.062;2023-03-14T13:34:30;96030.00;;;10.20
7389;BMP180;3735;50.136;11.062;2023-03-14T13:36:57;96023.00;;;10.20
7389;BMP180;3735;50.136;11.062;2023-03-14T13:39:25;96039.00;;;10.10
7389;BMP180;3735;50.136;11.062;2023-03-14T13:41:59;96042.00;;;10.10
7389;BMP180;3735;50.136;11.062;2023-03-14T13:44:35;96028.00;;;10.00
7389;BMP180;3735;50.136;11.062;2023-03-14T13:47:06;96039.00;;;10.00
7389;BMP180;3735;50.136;11.062;2023-03-14T13:49:37;96043.00;;;9.90
7389;BMP180;3735;50.136;11.062;2023-03-14T13:52:23;96048.00;;;9.70
7389;BMP180;3735;50.136;11.062;2023-03-14T13:54:57;96055.00;;;9.60
7389;BMP180;3735;50.136;11.062;2023-03-14T13:57:24;96052.00;;;9.60
7389;BMP180;3735;50.136;11.062;2023-03-14T14:00:26;96043.00;;;9.50
7389;BMP180;3735;50.136;11.062;2023-03-14T14:02:58;96047.00;;;9.50
7389;BMP180;3735;50.136;11.062;2023-03-14T14:05:28;96035.00;;;9.40
7389;BMP180;3735;50.136;11.062;2023-03-14T14:07:55;96058.00;;;9.40
7389;BMP180;3735;50.136;11.062;2023-03-14T14:10:22;96037.00;;;9.30
7389;BMP180;3735;50.136;11.062;2023-03-14T14:13:17;96055.00;;;9.30
7389;BMP180;3735;50.136;11.062;2023-03-14T14:15:48;96050.00;;;9.20
7389;BMP180;3735;50.136;11.062;2023-03-14T14:18:18;96062.00;;;9.20
7389;BMP180;3735;50.136;11.062;2023-03-14T14:20:47;96060.00;;;9.20
7389;BMP180;3735;50.136;11.062;2023-03-14T14:23:35;96054.00;;;9.20
7389;BMP180;3735;50.136;11.062;2023-03-14T14:26:05;96060.00;;;9.20
7389;BMP180;3735;50.136;11.062;2023-03-14T14:28:34;96055.00;;;9.20
7389;BMP180;3735;50.136;11.062;2023-03-14T14:31:22;96065.00;;;9.20
7389;BMP180;3735;50.136;11.062;2023-03-14T14:36:41;96095.00;;;9.20
7389;BMP180;3735;50.136;11.062;2023-03-14T14:39:20;96105.00;;;9.20
7389;BMP180;3735;50.136;11.062;2023-03-14T14:41:49;96096.00;;;9.20
7389;BMP180;3735;50.136;11.062;2023-03-14T14:44:36;96185.00;;;9.10
7389;BMP180;3735;50.136;11.062;2023-03-14T14:47:04;96204.00;;;8.90
7389;BMP180;3735;50.136;11.062;2023-03-14T14:49:32;96216.00;;;8.80
7389;BMP180;3735;50.136;11.062;2023-03-14T14:52:12;96229.00;;;8.70
7389;BMP180;3735;50.136;11.062;2023-03-14T14:54:45;96233.00;;;8.60
7389;BMP180;3735;50.136;11.062;2023-03-14T14:57:32;96243.00;;;8.40
7389;BMP180;3735;50.136;11.062;2023-03-14T15:00:10;96271.00;;;8.20
7389;BMP180;3735;50.136;11.062;2023-03-14T15:02:48;96260.00;;;8.10
7389;BMP180;3735;50.136;11.062;2023-03-14T15:05:16;96268.00;;;8.00
7389;BMP180;3735;50.136;11.062;2023-03-14T15:07:42;96261.00;;;7.90
7389;BMP180;3735;50.136;11.062;2023-03-14T15:10:26;96296.00;;;7.90
7389;BMP180;3735;50.136;11.062;2023-03-14T15:12:52;96306.00;;;7.90
7389;BMP180;3735;50.136;11.062;2023-03-14T15:15:18;96303.00;;;7.90
7389;BMP180;3735;50.136;11.062;2023-03-14T15:17:45;96315.00;;;7.90
7389;BMP180;3735;50.136;11.062;2023-03-14T15:20:15;96323.00;;;8.10
7389;BMP180;3735;50.136;11.062;2023-03-14T15:22:42;96336.00;;;8.20
7389;BMP180;3735;50.136;11.062;2023-03-14T15:25:09;96342.00;;;8.20
7389;BMP180;3735;50.136;11.062;2023-03-14T15:27:36;96365.00;;;8.30
7389;BMP180;3735;50.136;11.062;2023-03-14T15:30:12;96334.00;;;8.40
7389;BMP180;3735;50.136;11.062;2023-03-14T15:32:38;96384.00;;;8.50
7389;BMP180;3735;50.136;11.062;2023-03-14T15:35:05;96371.00;;;8.40
7389;BMP180;3735;50.136;11.062;2023-03-14T15:37:31;96395.00;;;8.40
7389;BMP180;3735;50.136;11.062;2023-03-14T15:39:57;96389.00;;;8.40